Time;durP1;ratioP1;P1;durP2;ratioP2;P2;SDS_P1;SDS_P2;PMS_P1;PMS_P2;Temp;Humidity;BMP_temperature;BMP_pressure;BME280_temperature;BME280_humidity;BME280_pressure;Samples;Min_cycle;Max_cycle;Signal;HPM_P1;HPM_P2
2022/12/23 00:00:04;;;;;;;50.55;45.67;;;;;;;;;;5013261;28;20454;-60
2022/12/23 00:02:30;;;;;;;47.08;42.40;;;;;;;;;;5030513;28;20193;-58
2022/12/23 00:04:56;;;;;;;48.25;43.15;;;;;;;;;;5030035;28;20128;-59
2022/12/23 00:07:22;;;;;;;47.67;42.95;;;;;;;;;;5030734;28;20183;-58
2022/12/23 00:09:48;;;;;;;46.10;41.75;;;;;;;;;;5014509;28;20390;-57
2022/12/23 00:15:05;;;;;;;47.90;43.20;;;;;;;;;;5036576;28;20084;-57
2022/12/23 00:17:31;;;;;;;49.33;44.17;;;;;;;;;;5037086;28;20075;-59
2022/12/23 00:19:57;;;;;;;46.47;42.03;;;;;;;;;;5037217;28;20037;-57
2022/12/23 00:23:03;;;;;;;49.97;44.95;;;;;;;;;;5036898;28;20478;-55
2022/12/23 00:25:09;;;;;;;50.53;45.20;;;;;;;;;;5036092;28;20029;-59
2022/12/23 00:27:35;;;;;;;49.10;44.60;;;;;;;;;;5036922;28;20034;-59
2022/12/23 00:30:01;;;;;;;51.67;46.80;;;;;;;;;;5037145;28;20022;-60
2022/12/23 00:32:27;;;;;;;52.45;46.80;;;;;;;;;;5036920;28;20163;-60
2022/12/23 00:34:53;;;;;;;55.33;49.65;;;;;;;;;;5018378;28;20029;-58
2022/12/23 00:37:19;;;;;;;53.40;47.55;;;;;;;;;;5037000;28;20040;-58
2022/12/23 00:45:14;;;;;;;53.15;47.50;;;;;;;;;;5036420;28;20532;-56
2022/12/23 00:50:26;;;;;;;59.90;54.15;;;;;;;;;;5037470;28;20084;-60
2022/12/23 00:52:52;;;;;;;58.50;53.05;;;;;;;;;;5036967;28;20448;-54
2022/12/23 00:55:18;;;;;;;57.03;50.97;;;;;;;;;;5018485;28;20539;-53
2022/12/23 00:57:44;;;;;;;55.50;50.20;;;;;;;;;;5036963;28;20060;-58
2022/12/23 01:00:10;;;;;;;57.78;52.15;;;;;;;;;;5036842;28;20049;-57
2022/12/23 01:05:37;;;;;;;58.63;52.40;;;;;;;;;;5036279;28;20032;-60
2022/12/23 01:08:04;;;;;;;56.30;50.45;;;;;;;;;;5036932;28;20021;-59
2022/12/23 01:10:30;;;;;;;57.95;51.83;;;;;;;;;;5037081;28;20021;-57
2022/12/23 01:12:56;;;;;;;58.58;52.53;;;;;;;;;;5036727;28;20030;-54
2022/12/23 01:15:23;;;;;;;57.80;51.88;;;;;;;;;;5036161;28;20401;-55
2022/12/23 01:17:49;;;;;;;56.88;50.80;;;;;;;;;;5037090;28;20033;-57
2022/12/23 01:20:15;;;;;;;63.15;52.65;;;;;;;;;;5036733;28;20470;-57
2022/12/23 01:22:41;;;;;;;59.60;53.38;;;;;;;;;;5016247;28;20072;-59
2022/12/23 01:25:07;;;;;;;56.40;50.85;;;;;;;;;;5032771;28;20028;-58
2022/12/23 01:27:33;;;;;;;57.10;51.63;;;;;;;;;;5033579;28;20540;-56
2022/12/23 01:29:59;;;;;;;58.95;52.08;;;;;;;;;;5033346;28;20033;-56
2022/12/23 01:32:25;;;;;;;58.85;52.05;;;;;;;;;;5033380;28;20131;-57
2022/12/23 01:34:51;;;;;;;58.92;53.38;;;;;;;;;;5032421;28;20135;-59
2022/12/23 01:37:17;;;;;;;57.65;51.70;;;;;;;;;;5033249;28;20064;-54
2022/12/23 01:39:43;;;;;;;56.38;50.78;;;;;;;;;;5033705;28;20025;-56
2022/12/23 01:44:59;;;;;;;;;;;;;;;;;;5033171;28;20460;-59
2022/12/23 01:47:38;;;;;;;57.25;51.72;;;;;;;;;;5033119;28;19940;-59
2022/12/23 01:50:07;;;;;;;57.70;52.17;;;;;;;;;;5015488;28;20025;-57
2022/12/23 01:52:35;;;;;;;57.53;51.53;;;;;;;;;;5033252;28;20029;-56
2022/12/23 01:55:01;;;;;;;56.70;51.17;;;;;;;;;;5032410;28;20029;-57
2022/12/23 01:57:27;;;;;;;57.55;51.58;;;;;;;;;;5033457;28;20095;-56
2022/12/23 02:05:24;;;;;;;55.35;50.20;;;;;;;;;;5032451;28;20394;-59
2022/12/23 02:10:49;;;;;;;60.22;50.50;;;;;;;;;;5033026;28;20156;-57
2022/12/23 02:13:20;;;;;;;54.92;50.00;;;;;;;;;;5031881;28;20057;-56
2022/12/23 02:18:41;;;;;;;57.05;51.45;;;;;;;;;;5033018;28;20052;-56
2022/12/23 02:21:07;;;;;;;56.17;50.88;;;;;;;;;;5014838;28;20053;-57
2022/12/23 02:23:52;;;;;;;55.38;50.17;;;;;;;;;;5031475;28;20033;-57
2022/12/23 02:26:37;;;;;;;54.10;49.15;;;;;;;;;;5032425;28;20032;-57
2022/12/23 02:29:03;;;;;;;52.72;48.53;;;;;;;;;;5032238;28;20045;-58
2022/12/23 02:31:34;;;;;;;56.70;51.85;;;;;;;;;;5032620;28;20040;-58
2022/12/23 02:34:20;;;;;;;55.65;50.25;;;;;;;;;;5013458;28;20393;-57
2022/12/23 02:37:01;;;;;;;54.58;49.50;;;;;;;;;;5032150;28;20516;-55
2022/12/23 02:39:32;;;;;;;55.53;50.33;;;;;;;;;;5014640;28;20080;-59
2022/12/23 02:42:05;;;;;;;51.20;46.80;;;;;;;;;;5032265;28;20460;-56
2022/12/23 02:44:34;;;;;;;53.75;49.03;;;;;;;;;;5013507;28;20504;-58
2022/12/23 02:47:08;;;;;;;52.17;47.50;;;;;;;;;;5031968;28;20104;-59
2022/12/23 02:49:35;;;;;;;51.88;47.38;;;;;;;;;;5032030;28;20108;-59
2022/12/23 02:52:04;;;;;;;52.92;48.35;;;;;;;;;;5032059;28;20033;-55
2022/12/23 02:54:32;;;;;;;53.88;49.10;;;;;;;;;;5013467;28;20401;-58
2022/12/23 02:57:00;;;;;;;54.15;49.25;;;;;;;;;;5031905;28;20084;-56
2022/12/23 02:59:28;;;;;;;53.97;49.13;;;;;;;;;;5031867;28;20078;-57
2022/12/23 03:01:55;;;;;;;51.50;47.03;;;;;;;;;;5031939;28;20098;-57
2022/12/23 03:04:21;;;;;;;52.72;48.08;;;;;;;;;;5031110;28;20217;-56
2022/12/23 03:06:54;;;;;;;52.67;48.20;;;;;;;;;;5031760;28;20086;-61
2022/12/23 03:09:23;;;;;;;53.65;49.08;;;;;;;;;;5013946;28;20075;-57
2022/12/23 03:12:12;;;;;;;53.53;48.83;;;;;;;;;;5031535;28;20091;-61
2022/12/23 03:14:41;;;;;;;52.72;48.25;;;;;;;;;;5017680;28;20037;-56
2022/12/23 03:17:33;;;;;;;53.58;48.75;;;;;;;;;;5031322;28;20490;-59
2022/12/23 03:20:03;;;;;;;53.95;49.22;;;;;;;;;;5027054;28;20044;-57
2022/12/23 03:22:37;;;;;;;54.58;49.65;;;;;;;;;;5031176;28;20036;-59
2022/12/23 03:25:03;;;;;;;52.78;48.08;;;;;;;;;;5030383;28;20021;-57
2022/12/23 03:27:40;;;;;;;54.45;49.72;;;;;;;;;;5031244;28;20489;-57
2022/12/23 03:30:07;;;;;;;52.85;48.33;;;;;;;;;;5031079;28;20033;-57
2022/12/23 03:32:39;;;;;;;52.20;47.30;;;;;;;;;;5031274;28;20029;-56
2022/12/23 03:35:07;;;;;;;54.05;49.10;;;;;;;;;;5012436;28;20037;-58
2022/12/23 03:37:35;;;;;;;52.37;47.53;;;;;;;;;;5030974;28;20044;-55
2022/12/23 03:40:04;;;;;;;52.67;47.50;;;;;;;;;;5031052;28;20160;-56
2022/12/23 03:42:33;;;;;;;52.40;47.67;;;;;;;;;;5030436;28;20059;-59
2022/12/23 03:45:00;;;;;;;51.67;46.88;;;;;;;;;;5029364;28;20030;-56
2022/12/23 03:47:28;;;;;;;51.30;46.88;;;;;;;;;;5013058;28;20095;-61
2022/12/23 03:49:59;;;;;;;52.42;47.78;;;;;;;;;;5030894;28;20171;-58
2022/12/23 03:52:35;;;;;;;51.28;46.80;;;;;;;;;;5030841;28;20033;-57
2022/12/23 03:55:03;;;;;;;48.97;44.42;;;;;;;;;;5029670;28;20095;-57
2022/12/23 03:57:52;;;;;;;51.00;45.95;;;;;;;;;;5030497;28;20041;-59
2022/12/23 04:00:18;;;;;;;51.00;46.13;;;;;;;;;;5016649;28;20117;-57
2022/12/23 04:02:58;;;;;;;49.25;44.75;;;;;;;;;;5030443;28;20133;-56
2022/12/23 04:05:24;;;;;;;50.47;45.70;;;;;;;;;;5029450;28;20022;-55
2022/12/23 04:07:59;;;;;;;49.70;45.03;;;;;;;;;;5030447;28;20021;-56
2022/12/23 04:10:26;;;;;;;49.67;44.92;;;;;;;;;;5030374;28;20029;-57
2022/12/23 04:12:52;;;;;;;49.85;45.25;;;;;;;;;;5030122;28;20052;-59
2022/12/23 04:15:19;;;;;;;50.03;44.75;;;;;;;;;;5029642;28;20032;-57
2022/12/23 04:17:45;;;;;;;50.63;45.65;;;;;;;;;;5030493;28;20029;-55
2022/12/23 04:20:11;;;;;;;47.20;42.80;;;;;;;;;;5030399;28;20104;-59
2022/12/23 04:22:38;;;;;;;48.10;43.55;;;;;;;;;;5012104;28;20385;-55
2022/12/23 04:25:04;;;;;;;49.60;44.70;;;;;;;;;;5029559;28;20107;-59
2022/12/23 04:27:30;;;;;;;49.15;44.20;;;;;;;;;;5030343;28;20079;-57
2022/12/23 04:29:56;;;;;;;46.97;42.33;;;;;;;;;;5030151;28;20057;-58
2022/12/23 04:32:22;;;;;;;47.38;42.67;;;;;;;;;;5030076;28;20025;-59
2022/12/23 04:34:48;;;;;;;45.45;39.03;;;;;;;;;;5029067;28;20037;-59
2022/12/23 04:37:14;;;;;;;44.05;36.10;;;;;;;;;;5030425;28;20032;-56
2022/12/23 04:39:40;;;;;;;45.13;38.90;;;;;;;;;;5030309;28;20021;-60
2022/12/23 04:42:06;;;;;;;45.70;37.72;;;;;;;;;;5029874;28;20033;-56
2022/12/23 04:44:32;;;;;;;42.83;36.25;;;;;;;;;;5011470;28;20032;-54
2022/12/23 04:46:58;;;;;;;44.08;39.22;;;;;;;;;;5029947;28;20148;-57
2022/12/23 04:49:24;;;;;;;46.05;37.35;;;;;;;;;;5029931;28;20036;-57
2022/12/23 04:51:50;;;;;;;46.05;37.28;;;;;;;;;;5030025;28;20022;-57
2022/12/23 04:54:16;;;;;;;40.67;34.88;;;;;;;;;;5029441;28;20456;-56
2022/12/23 04:56:42;;;;;;;48.28;36.53;;;;;;;;;;5032391;28;20030;-57
2022/12/23 04:59:09;;;;;;;43.75;35.78;;;;;;;;;;5034459;28;20080;-56
2022/12/23 05:01:35;;;;;;;44.10;35.00;;;;;;;;;;5033980;28;20052;-59
2022/12/23 05:04:01;;;;;;;40.92;33.42;;;;;;;;;;5032712;28;20044;-58
2022/12/23 05:06:27;;;;;;;38.63;34.40;;;;;;;;;;5033778;28;20509;-57
2022/12/23 05:08:53;;;;;;;41.72;35.33;;;;;;;;;;5033837;28;20026;-56
2022/12/23 05:11:19;;;;;;;44.00;35.72;;;;;;;;;;5033927;28;20124;-54
2022/12/23 05:13:45;;;;;;;39.33;34.50;;;;;;;;;;5033437;28;20116;-58
2022/12/23 05:16:11;;;;;;;38.20;33.63;;;;;;;;;;5033989;28;20036;-57
2022/12/23 05:18:37;;;;;;;35.53;31.25;;;;;;;;;;5034031;28;20021;-56
2022/12/23 05:21:03;;;;;;;36.22;31.65;;;;;;;;;;5033917;28;20486;-57
2022/12/23 05:23:29;;;;;;;37.45;31.70;;;;;;;;;;5033070;28;20029;-55
2022/12/23 05:25:55;;;;;;;37.95;32.58;;;;;;;;;;5033511;28;20465;-57
2022/12/23 05:28:21;;;;;;;38.00;33.03;;;;;;;;;;5016119;28;20025;-56
2022/12/23 05:30:47;;;;;;;38.72;32.05;;;;;;;;;;5033688;28;20065;-60
2022/12/23 05:33:13;;;;;;;41.00;33.97;;;;;;;;;;5032953;28;20025;-59
2022/12/23 05:35:39;;;;;;;37.00;31.65;;;;;;;;;;5057290;22;20037;-49
2022/12/23 05:38:05;;;;;;;35.42;31.63;;;;;;;;;;5032875;28;20124;-54
2022/12/23 05:40:31;;;;;;;38.47;33.35;;;;;;;;;;5034270;28;20017;-51
2022/12/23 05:42:57;;;;;;;40.88;34.75;;;;;;;;;;5034015;28;20033;-51
2022/12/23 05:45:23;;;;;;;39.95;34.70;;;;;;;;;;5032428;28;20029;-55
2022/12/23 05:47:49;;;;;;;38.90;32.17;;;;;;;;;;5032968;28;20033;-55
2022/12/23 05:50:15;;;;;;;36.95;32.55;;;;;;;;;;5034249;28;20033;-55
2022/12/23 05:52:41;;;;;;;39.50;34.08;;;;;;;;;;5034065;28;20156;-56
2022/12/23 05:55:07;;;;;;;41.72;34.03;;;;;;;;;;5033295;28;20116;-56
2022/12/23 05:57:33;;;;;;;38.78;33.28;;;;;;;;;;5034176;28;20164;-53
2022/12/23 05:59:59;;;;;;;40.33;34.97;;;;;;;;;;5033992;28;20108;-57
2022/12/23 06:02:25;;;;;;;39.05;33.60;;;;;;;;;;5032736;28;20052;-55
2022/12/23 06:04:51;;;;;;;41.15;33.05;;;;;;;;;;5033279;28;20482;-55
2022/12/23 06:07:17;;;;;;;38.97;34.35;;;;;;;;;;5032152;28;20025;-54
2022/12/23 06:09:43;;;;;;;41.03;34.10;;;;;;;;;;5033190;28;20021;-55
2022/12/23 06:12:09;;;;;;;41.33;33.30;;;;;;;;;;5018707;28;20022;-52
2022/12/23 06:14:35;;;;;;;40.05;32.75;;;;;;;;;;5030743;28;20606;-53
2022/12/23 06:17:01;;;;;;;46.85;36.15;;;;;;;;;;5013677;28;20120;-55
2022/12/23 06:19:27;;;;;;;42.78;33.70;;;;;;;;;;5013511;28;20033;-56
2022/12/23 06:21:53;;;;;;;39.25;34.58;;;;;;;;;;5013754;28;20076;-53
2022/12/23 06:24:19;;;;;;;42.03;34.35;;;;;;;;;;5006822;28;20033;-50
2022/12/23 06:26:45;;;;;;;40.55;34.97;;;;;;;;;;5033096;28;20433;-53
2022/12/23 06:29:11;;;;;;;43.67;35.08;;;;;;;;;;5033340;28;20047;-51
2022/12/23 06:31:37;;;;;;;42.03;34.38;;;;;;;;;;5033272;28;20030;-50
2022/12/23 06:34:03;;;;;;;46.05;36.35;;;;;;;;;;5014921;28;20017;-52
2022/12/23 06:36:29;;;;;;;47.75;35.10;;;;;;;;;;5033046;28;20083;-51
2022/12/23 06:38:55;;;;;;;44.58;34.17;;;;;;;;;;5032980;28;20366;-54
2022/12/23 06:41:21;;;;;;;43.55;33.60;;;;;;;;;;5021242;28;20057;-55
2022/12/23 06:43:47;;;;;;;47.03;34.05;;;;;;;;;;5012271;28;20054;-55
2022/12/23 06:46:13;;;;;;;43.80;34.78;;;;;;;;;;5012808;28;20038;-57
2022/12/23 06:48:39;;;;;;;43.60;33.83;;;;;;;;;;5012885;28;20064;-59
2022/12/23 06:51:05;;;;;;;43.22;34.63;;;;;;;;;;5013082;28;20084;-56
2022/12/23 06:53:31;;;;;;;43.70;32.75;;;;;;;;;;4994554;28;20040;-56
2022/12/23 06:56:01;;;;;;;42.03;33.55;;;;;;;;;;5012701;28;20030;-53
2022/12/23 06:58:27;;;;;;;39.33;32.83;;;;;;;;;;5012780;28;20038;-53
2022/12/23 07:00:53;;;;;;;47.70;33.72;;;;;;;;;;5012824;28;20034;-55
2022/12/23 07:03:19;;;;;;;48.47;33.40;;;;;;;;;;5011841;28;20532;-52
2022/12/23 07:05:48;;;;;;;43.88;33.58;;;;;;;;;;5012450;28;20045;-53
2022/12/23 07:08:14;;;;;;;43.55;34.95;;;;;;;;;;5028026;28;20049;-54
2022/12/23 07:10:40;;;;;;;40.83;33.10;;;;;;;;;;5032385;28;20104;-59
2022/12/23 07:13:06;;;;;;;46.95;35.38;;;;;;;;;;5013860;28;20044;-57
2022/12/23 07:15:32;;;;;;;47.30;33.58;;;;;;;;;;5032229;28;20099;-56
2022/12/23 07:17:58;;;;;;;40.42;32.90;;;;;;;;;;5032305;28;20539;-54
2022/12/23 07:20:24;;;;;;;44.15;34.42;;;;;;;;;;5032013;28;20030;-58
2022/12/23 07:22:53;;;;;;;45.70;34.72;;;;;;;;;;5032013;28;20036;-55
2022/12/23 07:25:19;;;;;;;40.38;32.85;;;;;;;;;;5013982;28;20029;-55
2022/12/23 07:27:45;;;;;;;40.33;32.72;;;;;;;;;;5032120;28;20018;-56
2022/12/23 07:30:11;;;;;;;41.42;35.22;;;;;;;;;;5032463;28;20021;-61
2022/12/23 07:32:37;;;;;;;40.15;34.40;;;;;;;;;;5032358;28;20025;-55
2022/12/23 07:35:03;;;;;;;40.10;34.08;;;;;;;;;;5031496;28;20030;-59
2022/12/23 07:37:29;;;;;;;40.70;33.92;;;;;;;;;;5032235;28;20033;-55
2022/12/23 07:39:55;;;;;;;42.10;35.50;;;;;;;;;;5032147;28;20041;-60
2022/12/23 07:42:21;;;;;;;42.92;34.20;;;;;;;;;;5031754;28;20034;-59
2022/12/23 07:44:47;;;;;;;37.95;33.90;;;;;;;;;;5030827;28;20155;-59
2022/12/23 07:47:14;;;;;;;42.53;35.55;;;;;;;;;;5031499;28;20110;-56
2022/12/23 07:49:40;;;;;;;36.50;32.60;;;;;;;;;;5013990;28;20037;-54
2022/12/23 07:52:06;;;;;;;39.15;33.13;;;;;;;;;;5031637;28;20025;-57
2022/12/23 07:54:32;;;;;;;39.65;34.15;;;;;;;;;;5030477;28;20029;-56
2022/12/23 07:56:58;;;;;;;36.97;33.08;;;;;;;;;;5013583;28;20064;-55
2022/12/23 07:59:27;;;;;;;35.55;31.80;;;;;;;;;;5013876;28;20030;-55
2022/12/23 08:01:53;;;;;;;40.80;32.70;;;;;;;;;;5031390;28;20030;-56
2022/12/23 08:04:19;;;;;;;35.45;31.83;;;;;;;;;;5013093;28;20044;-52
2022/12/23 08:06:45;;;;;;;36.05;32.17;;;;;;;;;;5031588;28;20025;-55
2022/12/23 08:09:11;;;;;;;36.22;32.10;;;;;;;;;;5031437;28;20488;-59
2022/12/23 08:11:37;;;;;;;34.70;30.90;;;;;;;;;;5013715;28;20022;-53
2022/12/23 08:14:03;;;;;;;34.45;30.85;;;;;;;;;;5030577;28;20079;-54
2022/12/23 08:16:29;;;;;;;34.55;30.08;;;;;;;;;;5013759;28;20112;-57
2022/12/23 08:18:55;;;;;;;36.60;32.70;;;;;;;;;;5031365;28;20021;-58
2022/12/23 08:21:22;;;;;;;34.80;31.10;;;;;;;;;;5031465;28;20032;-54
2022/12/23 08:23:48;;;;;;;35.33;30.85;;;;;;;;;;5012887;28;20025;-53
2022/12/23 08:26:15;;;;;;;33.15;29.67;;;;;;;;;;5031010;28;20366;-55
2022/12/23 08:28:42;;;;;;;34.75;30.33;;;;;;;;;;5013569;28;20060;-53
2022/12/23 08:31:09;;;;;;;34.20;30.45;;;;;;;;;;5032280;28;20025;-56
2022/12/23 08:33:37;;;;;;;35.67;31.85;;;;;;;;;;5034927;28;20049;-53
2022/12/23 08:36:03;;;;;;;33.47;29.95;;;;;;;;;;5035145;28;20041;-58
2022/12/23 08:38:29;;;;;;;34.75;31.15;;;;;;;;;;5035258;28;20030;-55
2022/12/23 08:40:55;;;;;;;35.80;31.27;;;;;;;;;;5034884;28;20025;-53
2022/12/23 08:43:22;;;;;;;35.60;31.75;;;;;;;;;;5034488;28;20079;-56
2022/12/23 08:45:48;;;;;;;36.25;32.47;;;;;;;;;;5035050;28;20091;-57
2022/12/23 08:48:14;;;;;;;38.00;31.00;;;;;;;;;;5035246;28;20100;-53
2022/12/23 08:50:41;;;;;;;36.72;31.20;;;;;;;;;;5034893;28;20021;-54
2022/12/23 08:53:07;;;;;;;35.90;32.08;;;;;;;;;;5034295;28;20029;-56
2022/12/23 08:55:40;;;;;;;34.15;30.67;;;;;;;;;;5034927;28;20039;-54
2022/12/23 08:58:07;;;;;;;36.42;30.88;;;;;;;;;;5017076;28;20492;-58
2022/12/23 09:00:33;;;;;;;35.65;31.73;;;;;;;;;;5035049;28;20029;-53
2022/12/23 09:02:59;;;;;;;35.00;31.30;;;;;;;;;;5034347;28;20040;-56
2022/12/23 09:05:25;;;;;;;36.20;32.28;;;;;;;;;;5033779;28;20426;-54
2022/12/23 09:07:51;;;;;;;34.78;31.08;;;;;;;;;;5034968;28;20021;-56
2022/12/23 09:10:18;;;;;;;35.67;30.52;;;;;;;;;;5034883;28;20040;-53
2022/12/23 09:12:44;;;;;;;33.55;29.95;;;;;;;;;;5034430;28;20071;-52
2022/12/23 09:15:10;;;;;;;34.85;31.13;;;;;;;;;;5033678;28;20021;-56
2022/12/23 09:17:36;;;;;;;35.55;31.65;;;;;;;;;;5034316;28;20398;-53
2022/12/23 09:20:02;;;;;;;34.10;30.58;;;;;;;;;;5034147;28;20155;-53
2022/12/23 09:22:28;;;;;;;35.33;29.52;;;;;;;;;;5034241;28;20052;-57
2022/12/23 09:24:54;;;;;;;35.53;30.45;;;;;;;;;;5033482;28;20378;-57
2022/12/23 09:27:20;;;;;;;32.22;28.50;;;;;;;;;;5034253;28;20041;-53
2022/12/23 09:29:46;;;;;;;35.85;29.38;;;;;;;;;;5034203;28;20103;-51
2022/12/23 09:32:12;;;;;;;34.85;29.50;;;;;;;;;;5014814;28;20025;-53
2022/12/23 09:34:38;;;;;;;34.72;31.05;;;;;;;;;;5035260;28;20127;-51
2022/12/23 09:37:04;;;;;;;37.83;30.45;;;;;;;;;;5036859;28;20117;-53
2022/12/23 09:39:30;;;;;;;34.78;29.73;;;;;;;;;;5035508;28;20125;-51
2022/12/23 09:42:02;;;;;;;34.95;29.65;;;;;;;;;;5033890;28;20034;-51
2022/12/23 09:44:35;;;;;;;34.25;29.40;;;;;;;;;;5032358;28;20028;-54
2022/12/23 09:47:02;;;;;;;36.80;29.90;;;;;;;;;;5033398;28;20022;-57
2022/12/23 09:49:28;;;;;;;37.28;33.05;;;;;;;;;;5033563;28;20047;-55
2022/12/23 09:51:58;;;;;;;36.30;31.55;;;;;;;;;;5033237;28;20025;-56
2022/12/23 09:54:27;;;;;;;37.58;31.90;;;;;;;;;;5032656;28;20034;-54
2022/12/23 09:57:08;;;;;;;36.50;32.25;;;;;;;;;;5033246;28;20052;-51
2022/12/23 09:59:40;;;;;;;35.17;30.73;;;;;;;;;;5015994;28;20638;-52
2022/12/23 10:02:16;;;;;;;37.60;32.50;;;;;;;;;;5033289;28;20029;-54
2022/12/23 10:04:45;;;;;;;36.95;32.17;;;;;;;;;;5032436;28;20032;-55
2022/12/23 10:07:16;;;;;;;36.78;31.38;;;;;;;;;;5033352;28;20025;-54
2022/12/23 10:09:44;;;;;;;34.95;29.48;;;;;;;;;;5033391;28;20034;-53
2022/12/23 10:12:34;;;;;;;38.28;32.70;;;;;;;;;;5033332;28;20034;-53
2022/12/23 10:15:01;;;;;;;37.22;33.25;;;;;;;;;;5024588;28;20120;-55
2022/12/23 10:17:34;;;;;;;38.22;32.78;;;;;;;;;;5015606;28;20035;-56
2022/12/23 10:20:02;;;;;;;36.78;31.90;;;;;;;;;;5032923;28;20115;-53
2022/12/23 10:22:39;;;;;;;38.67;33.00;;;;;;;;;;5033218;28;20030;-56
2022/12/23 10:25:12;;;;;;;37.20;32.37;;;;;;;;;;5014482;28;20326;-56
2022/12/23 10:27:39;;;;;;;37.80;33.88;;;;;;;;;;5014833;28;20501;-53
2022/12/23 10:30:15;;;;;;;37.50;32.22;;;;;;;;;;5032378;28;20025;-55
2022/12/23 10:32:47;;;;;;;35.83;32.05;;;;;;;;;;5032397;28;20025;-56
2022/12/23 10:35:32;;;;;;;36.22;30.30;;;;;;;;;;5031735;28;20038;-51
2022/12/23 10:38:18;;;;;;;39.63;33.15;;;;;;;;;;5032674;28;20030;-56
2022/12/23 10:40:50;;;;;;;37.67;33.30;;;;;;;;;;5002178;28;20041;-55
2022/12/23 10:43:22;;;;;;;35.35;31.52;;;;;;;;;;5013839;28;20029;-53
2022/12/23 10:45:59;;;;;;;37.10;32.28;;;;;;;;;;5032092;28;20033;-56
2022/12/23 10:48:28;;;;;;;37.83;30.08;;;;;;;;;;5032461;28;20029;-56
2022/12/23 10:50:54;;;;;;;37.95;30.67;;;;;;;;;;5032545;28;20021;-55
2022/12/23 10:53:29;;;;;;;38.47;30.13;;;;;;;;;;5013908;28;20183;-57
2022/12/23 10:55:55;;;;;;;34.90;29.85;;;;;;;;;;5032035;28;20032;-53
2022/12/23 10:58:21;;;;;;;37.15;30.50;;;;;;;;;;5032585;28;20382;-58
2022/12/23 11:00:51;;;;;;;38.60;30.95;;;;;;;;;;5032039;28;20101;-58
2022/12/23 11:03:22;;;;;;;41.63;32.15;;;;;;;;;;5030175;28;20021;-55
2022/12/23 11:05:49;;;;;;;39.03;31.08;;;;;;;;;;5032078;28;20017;-55
2022/12/23 11:08:15;;;;;;;36.92;30.60;;;;;;;;;;5031635;28;20045;-57
2022/12/23 11:10:41;;;;;;;35.42;28.77;;;;;;;;;;5029996;28;20028;-56
2022/12/23 11:13:07;;;;;;;37.92;31.05;;;;;;;;;;5031055;28;20033;-56
2022/12/23 11:15:40;;;;;;;38.83;32.03;;;;;;;;;;5031946;28;20022;-56
2022/12/23 11:18:12;;;;;;;38.60;30.65;;;;;;;;;;5014403;28;20121;-56
2022/12/23 11:20:39;;;;;;;40.13;31.48;;;;;;;;;;5031964;28;20030;-56
2022/12/23 11:23:06;;;;;;;37.65;30.90;;;;;;;;;;5031254;28;20026;-52
2022/12/23 11:25:32;;;;;;;35.45;29.83;;;;;;;;;;5013222;28;20125;-52
2022/12/23 11:28:00;;;;;;;36.92;29.25;;;;;;;;;;5031340;28;20373;-55
2022/12/23 11:30:26;;;;;;;37.42;29.45;;;;;;;;;;5031460;28;20033;-53
2022/12/23 11:32:52;;;;;;;41.40;31.98;;;;;;;;;;5031431;28;20021;-57
2022/12/23 11:35:29;;;;;;;37.47;29.48;;;;;;;;;;5035269;22;20095;-59
2022/12/23 11:37:55;;;;;;;36.15;30.80;;;;;;;;;;5010102;28;20067;-61
2022/12/23 11:40:33;;;;;;;36.28;31.55;;;;;;;;;;5010128;28;20022;-61
2022/12/23 11:43:01;;;;;;;41.88;34.50;;;;;;;;;;5011869;28;20195;-62
2022/12/23 11:45:28;;;;;;;39.95;34.05;;;;;;;;;;5011703;28;20054;-59
2022/12/23 11:47:55;;;;;;;44.78;35.92;;;;;;;;;;5011873;28;20041;-58
2022/12/23 11:50:21;;;;;;;42.58;34.30;;;;;;;;;;5011821;28;20278;-59
2022/12/23 11:53:01;;;;;;;44.67;34.20;;;;;;;;;;5012083;28;20470;-61
2022/12/23 11:55:28;;;;;;;40.47;33.85;;;;;;;;;;5011723;28;20482;-60
2022/12/23 11:57:55;;;;;;;41.58;34.30;;;;;;;;;;5011577;28;20041;-62
2022/12/23 12:00:24;;;;;;;42.28;34.38;;;;;;;;;;5011217;28;20412;-60
2022/12/23 12:02:59;;;;;;;33.78;30.10;;;;;;;;;;4994464;28;20030;-53
2022/12/23 12:05:30;;;;;;;36.47;32.58;;;;;;;;;;5011601;28;20478;-58
2022/12/23 12:08:01;;;;;;;36.75;32.95;;;;;;;;;;5011230;28;20024;-62
2022/12/23 12:10:32;;;;;;;39.28;34.95;;;;;;;;;;4643394;28;10000050;-61
2022/12/23 12:13:01;;;;;;;35.75;31.92;;;;;;;;;;4990346;28;20034;-61
2022/12/23 12:15:30;;;;;;;35.88;32.20;;;;;;;;;;4989123;28;20033;-61
2022/12/23 12:17:57;;;;;;;34.88;31.17;;;;;;;;;;5007408;28;20034;-60
2022/12/23 12:20:40;;;;;;;35.35;31.20;;;;;;;;;;4989626;28;20025;-61
2022/12/23 12:23:12;;;;;;;34.58;30.70;;;;;;;;;;5008787;28;20105;-62
2022/12/23 12:25:47;;;;;;;32.58;29.15;;;;;;;;;;5010914;28;20033;-62
2022/12/23 12:28:16;;;;;;;34.13;30.52;;;;;;;;;;5010289;28;20069;-61
2022/12/23 12:31:03;;;;;;;32.40;29.20;;;;;;;;;;5011103;28;20033;-60
2022/12/23 12:33:38;;;;;;;33.75;30.33;;;;;;;;;;5009716;28;20034;-62
2022/12/23 12:36:12;;;;;;;32.25;28.95;;;;;;;;;;4992654;28;20036;-61
2022/12/23 12:38:38;;;;;;;32.35;28.67;;;;;;;;;;5010802;28;20104;-60
2022/12/23 12:41:27;;;;;;;34.22;30.58;;;;;;;;;;4660794;28;10000216;-61
2022/12/23 12:43:52;;;;;;;;;;;;;;;;;;4989835;28;20028;-62
2022/12/23 12:46:30;;;;;;;34.90;31.30;;;;;;;;;;5007331;28;19913;-61
2022/12/23 12:49:02;;;;;;;34.20;30.70;;;;;;;;;;5007585;28;20026;-63
2022/12/23 12:51:37;;;;;;;37.95;32.42;;;;;;;;;;5006809;28;20038;-62
2022/12/23 12:54:03;;;;;;;36.85;31.83;;;;;;;;;;5006506;28;20610;-61
2022/12/23 12:56:53;;;;;;;35.92;32.03;;;;;;;;;;5005907;28;20518;-61
2022/12/23 12:59:25;;;;;;;37.00;32.65;;;;;;;;;;4999923;28;20310;-62
2022/12/23 13:01:51;;;;;;;36.20;32.30;;;;;;;;;;5009007;28;20036;-60
2022/12/23 13:04:44;;;;;;;37.60;33.53;;;;;;;;;;5009572;28;20369;-63
2022/12/23 13:07:33;;;;;;;39.40;34.85;;;;;;;;;;4987994;28;20042;-64
2022/12/23 13:10:03;;;;;;;40.03;34.13;;;;;;;;;;4992352;28;20041;-63
2022/12/23 13:12:52;;;;;;;37.90;33.85;;;;;;;;;;5010855;28;20030;-61
2022/12/23 13:15:18;;;;;;;39.35;34.78;;;;;;;;;;4991442;28;20123;-64
2022/12/23 13:17:47;;;;;;;37.53;33.35;;;;;;;;;;5008845;28;20605;-61
2022/12/23 13:20:14;;;;;;;37.83;33.53;;;;;;;;;;5010915;28;20040;-62
2022/12/23 13:22:42;;;;;;;42.10;35.33;;;;;;;;;;5010297;28;20113;-62
2022/12/23 13:25:08;;;;;;;43.83;35.80;;;;;;;;;;5009072;28;20029;-61
2022/12/23 13:27:34;;;;;;;42.47;36.47;;;;;;;;;;5010630;28;20061;-62
2022/12/23 13:30:11;;;;;;;39.67;35.15;;;;;;;;;;5010219;28;20026;-62
2022/12/23 13:32:41;;;;;;;40.47;36.17;;;;;;;;;;5010612;28;20084;-61
2022/12/23 13:35:27;;;;;;;42.92;37.10;;;;;;;;;;5009976;28;20060;-60
2022/12/23 13:38:07;;;;;;;42.05;37.53;;;;;;;;;;5010203;28;20088;-60
2022/12/23 13:40:34;;;;;;;45.35;38.20;;;;;;;;;;5009597;28;20042;-64
2022/12/23 13:43:04;;;;;;;42.72;36.75;;;;;;;;;;5009804;28;20090;-63
2022/12/23 13:45:32;;;;;;;47.78;38.10;;;;;;;;;;5010302;28;20034;-61
2022/12/23 13:47:58;;;;;;;;;;;;;;;;;;5010794;28;20087;-53
2022/12/23 13:50:46;;;;;;;42.30;34.90;;;;;;;;;;4992560;28;19917;-59
2022/12/23 13:53:24;;;;;;;39.05;33.92;;;;;;;;;;5008895;28;20042;-61
2022/12/23 13:56:13;;;;;;;39.50;35.28;;;;;;;;;;5010348;28;20026;-62
2022/12/23 13:58:40;;;;;;;39.25;34.08;;;;;;;;;;5010635;28;20071;-62
2022/12/23 14:01:09;;;;;;;40.00;34.97;;;;;;;;;;5010268;28;20030;-59
2022/12/23 14:03:35;;;;;;;42.22;34.67;;;;;;;;;;4991317;28;20026;-63
2022/12/23 14:06:40;;;;;;;42.75;35.38;;;;;;;;;;5009557;28;20022;-62
2022/12/23 14:09:06;;;;;;;40.20;35.47;;;;;;;;;;5009772;28;20029;-63
2022/12/23 14:11:33;;;;;;;42.13;36.55;;;;;;;;;;5009104;28;20026;-62
2022/12/23 14:14:04;;;;;;;40.35;35.50;;;;;;;;;;4991225;28;20514;-63
2022/12/23 14:16:49;;;;;;;42.60;35.95;;;;;;;;;;5010297;28;20099;-58
2022/12/23 14:19:34;;;;;;;43.85;37.50;;;;;;;;;;4991315;28;20062;-61
2022/12/23 14:22:06;;;;;;;43.28;36.75;;;;;;;;;;4989195;28;20030;-57
2022/12/23 14:24:45;;;;;;;41.72;34.97;;;;;;;;;;5004474;28;20171;-57
2022/12/23 14:27:20;;;;;;;41.30;34.83;;;;;;;;;;5009080;28;20606;-63
2022/12/23 14:29:58;;;;;;;43.55;36.03;;;;;;;;;;4991433;28;20029;-64
2022/12/23 14:32:24;;;;;;;;;;;;;;;;;;5011828;28;20056;-62
2022/12/23 14:35:09;;;;;;;40.17;33.63;;;;;;;;;;5011391;28;19912;-61
2022/12/23 14:37:35;;;;;;;45.15;37.20;;;;;;;;;;5012940;28;20033;-62
2022/12/23 14:40:20;;;;;;;42.10;35.28;;;;;;;;;;5012483;28;20026;-59
2022/12/23 14:42:46;;;;;;;42.47;36.15;;;;;;;;;;5012388;28;20398;-62
2022/12/23 14:45:27;;;;;;;42.33;35.58;;;;;;;;;;5010942;28;20243;-58
2022/12/23 14:47:54;;;;;;;39.15;34.42;;;;;;;;;;5010596;28;20172;-60
2022/12/23 14:50:32;;;;;;;44.70;34.78;;;;;;;;;;5010238;28;20543;-62
2022/12/23 14:53:00;;;;;;;45.90;35.67;;;;;;;;;;5011252;28;20025;-61
2022/12/23 14:55:29;;;;;;;41.80;36.27;;;;;;;;;;5011417;28;20026;-62
2022/12/23 14:58:05;;;;;;;44.35;33.95;;;;;;;;;;4992574;28;20362;-60